This is the latest recevied weather packets stored in our database for station/object OE5OVL-13. If no packets are shown the sender has not sent any weather packets the latest 10 day(s).
| Time | Temp. | Humidity | Pressure | Rain* | Wind** | Luminosity | Snow |
|---|---|---|---|---|---|---|---|
| 1777128944 | 29.44° C | 22% | 740.1 hPa | 0 mm | - | - | - |
| 1777128032 | 28.89° C | 24% | 739.6 hPa | 0 mm | - | - | - |
| 1777127120 | 28.89° C | 24% | 739.5 hPa | 0 mm | - | - | - |
| 1777126208 | 27.78° C | 24% | 737.9 hPa | 0 mm | - | - | - |
| 1777125297 | 27.78° C | 25% | 738 hPa | 0 mm | - | - | - |
| 1777124385 | 27.22° C | 23% | 737.2 hPa | 0 mm | - | - | - |
| 1777123473 | 25.56° C | 25% | 735.6 hPa | 0 mm | - | - | - |
| 1777122561 | 26.11° C | 25% | 735.8 hPa | 0 mm | - | - | - |
| 1777121649 | 25.56° C | 26% | 735.5 hPa | 0 mm | - | - | - |
| 1777120737 | 25° C | 27% | 734.6 hPa | 0 mm | - | - | - |
| 1777119826 | 23.89° C | 28% | 733.7 hPa | 0 mm | - | - | - |
| 1777118914 | 23.33° C | 28% | 732.9 hPa | 0 mm | - | - | - |
| 1777118002 | 22.78° C | 29% | 732.2 hPa | 0 mm | - | - | - |
| 1777117091 | 21.67° C | 31% | 731.2 hPa | 0 mm | - | - | - |
| 1777116179 | 21.67° C | 32% | 731.1 hPa | 0 mm | - | - | - |
| 1777115267 | 21.11° C | 35% | 730.2 hPa | 0 mm | - | - | - |
| 1777114355 | 20° C | 36% | 729.3 hPa | 0 mm | - | - | - |
| 1777113444 | 19.44° C | 37% | 728.6 hPa | 0 mm | - | - | - |
| 1777112532 | 19.44° C | 41% | 728.6 hPa | 0 mm | - | - | - |
| 1777111620 | 18.89° C | 41% | 727.7 hPa | 0 mm | - | - | - |
| 1777110708 | 18.33° C | 43% | 726.9 hPa | 0 mm | - | - | - |
| 1777109797 | 17.78° C | 44% | 726.4 hPa | 0 mm | - | - | - |
| 1777108885 | 17.22° C | 45% | 725.7 hPa | 0 mm | - | - | - |
| 1777107973 | 16.67° C | 46% | 725 hPa | 0 mm | - | - | - |
| 1777107061 | 16.11° C | 49% | 724.4 hPa | 0 mm | - | - | - |
* Rain latest hour (hover to see other rain measurements)
** Current wind speed in m/s (hover to see current wind gust speed)